sensor_id;sensor_type;location;lat;lon;timestamp;pressure;altitude;pressure_sealevel;temperature;humidity
74913;BME280;63878;55.624;37.304;2023-04-25T00:03:20;98742.28;;;10.12;34.00
74913;BME280;63878;55.624;37.304;2023-04-25T00:13:21;98757.81;;;10.15;34.47
74913;BME280;63878;55.624;37.304;2023-04-25T00:23:22;98769.50;;;9.44;36.15
74913;BME280;63878;55.624;37.304;2023-04-25T00:33:22;98767.19;;;8.61;38.34
74913;BME280;63878;55.624;37.304;2023-04-25T00:43:25;98774.28;;;8.70;38.54
74913;BME280;63878;55.624;37.304;2023-04-25T00:53:27;98783.91;;;8.90;38.28
74913;BME280;63878;55.624;37.304;2023-04-25T01:03:28;98786.09;;;9.26;38.16
74913;BME280;63878;55.624;37.304;2023-04-25T01:13:30;98779.06;;;8.86;39.10
74913;BME280;63878;55.624;37.304;2023-04-25T01:23:31;98775.91;;;8.61;40.22
74913;BME280;63878;55.624;37.304;2023-04-25T01:33:33;98770.25;;;9.06;39.18
74913;BME280;63878;55.624;37.304;2023-04-25T01:43:34;98759.81;;;8.95;39.78
74913;BME280;63878;55.624;37.304;2023-04-25T01:53:34;98763.06;;;9.18;38.95
74913;BME280;63878;55.624;37.304;2023-04-25T02:03:36;98761.91;;;9.01;39.41
74913;BME280;63878;55.624;37.304;2023-04-25T02:13:36;98729.22;;;9.23;38.85
74913;BME280;63878;55.624;37.304;2023-04-25T02:23:37;98757.31;;;9.63;38.89
74913;BME280;63878;55.624;37.304;2023-04-25T02:33:37;98740.69;;;10.75;37.80
74913;BME280;63878;55.624;37.304;2023-04-25T02:43:38;98744.56;;;10.24;35.66
74913;BME280;63878;55.624;37.304;2023-04-25T02:53:39;98752.97;;;9.33;39.67
74913;BME280;63878;55.624;37.304;2023-04-25T03:03:39;98748.56;;;9.62;39.94
74913;BME280;63878;55.624;37.304;2023-04-25T03:13:40;98753.56;;;8.96;41.91
74913;BME280;63878;55.624;37.304;2023-04-25T03:23:40;98751.63;;;9.48;41.38
74913;BME280;63878;55.624;37.304;2023-04-25T03:33:41;98763.50;;;10.10;40.12
74913;BME280;63878;55.624;37.304;2023-04-25T03:43:41;98758.38;;;10.93;38.97
74913;BME280;63878;55.624;37.304;2023-04-25T03:53:42;98755.53;;;10.76;39.35
74913;BME280;63878;55.624;37.304;2023-04-25T04:03:42;98744.19;;;10.57;39.91
74913;BME280;63878;55.624;37.304;2023-04-25T04:13:43;98746.38;;;11.61;37.55
74913;BME280;63878;55.624;37.304;2023-04-25T04:23:43;98741.09;;;12.57;35.77
74913;BME280;63878;55.624;37.304;2023-04-25T04:33:44;98738.81;;;12.28;36.04
74913;BME280;63878;55.624;37.304;2023-04-25T04:43:44;98738.25;;;13.43;34.92
74913;BME280;63878;55.624;37.304;2023-04-25T04:53:45;98733.59;;;13.29;35.44
74913;BME280;63878;55.624;37.304;2023-04-25T05:03:45;98732.25;;;13.25;36.29
74913;BME280;63878;55.624;37.304;2023-04-25T05:13:46;98728.00;;;14.22;33.70
74913;BME280;63878;55.624;37.304;2023-04-25T05:23:46;98728.69;;;14.79;32.53
74913;BME280;63878;55.624;37.304;2023-04-25T05:33:47;98726.22;;;14.70;33.09
74913;BME280;63878;55.624;37.304;2023-04-25T05:43:47;98721.78;;;14.46;33.59
74913;BME280;63878;55.624;37.304;2023-04-25T05:53:48;98721.38;;;15.12;33.72
74913;BME280;63878;55.624;37.304;2023-04-25T06:03:49;98718.97;;;14.39;32.04
74913;BME280;63878;55.624;37.304;2023-04-25T06:13:49;98702.47;;;14.13;31.70
74913;BME280;63878;55.624;37.304;2023-04-25T06:23:50;98697.03;;;14.06;30.76
74913;BME280;63878;55.624;37.304;2023-04-25T06:33:51;98689.38;;;14.19;30.23
74913;BME280;63878;55.624;37.304;2023-04-25T06:43:51;98686.88;;;14.65;30.24
74913;BME280;63878;55.624;37.304;2023-04-25T06:53:52;98669.72;;;16.43;27.24
74913;BME280;63878;55.624;37.304;2023-04-25T07:03:52;98692.66;;;14.77;27.60
74913;BME280;63878;55.624;37.304;2023-04-25T07:13:53;98676.94;;;14.67;28.71
74913;BME280;63878;55.624;37.304;2023-04-25T07:23:53;98668.09;;;15.52;28.71
74913;BME280;63878;55.624;37.304;2023-04-25T07:33:54;98667.50;;;15.64;26.50
74913;BME280;63878;55.624;37.304;2023-04-25T07:43:55;98678.09;;;14.65;27.24
74913;BME280;63878;55.624;37.304;2023-04-25T07:53:55;98665.84;;;16.01;28.83
74913;BME280;63878;55.624;37.304;2023-04-25T08:03:56;98666.03;;;18.30;31.79
74913;BME280;63878;55.624;37.304;2023-04-25T08:13:56;98674.72;;;18.86;29.68
74913;BME280;63878;55.624;37.304;2023-04-25T08:23:57;98670.97;;;16.76;27.13
74913;BME280;63878;55.624;37.304;2023-04-25T08:33:57;98658.56;;;17.41;30.02
74913;BME280;63878;55.624;37.304;2023-04-25T08:43:59;98648.41;;;15.38;27.95
74913;BME280;63878;55.624;37.304;2023-04-25T08:54:11;98647.16;;;15.03;29.21
74913;BME280;63878;55.624;37.304;2023-04-25T09:04:12;98638.94;;;15.96;31.07
74913;BME280;63878;55.624;37.304;2023-04-25T09:14:18;98618.06;;;14.47;29.49
74913;BME280;63878;55.624;37.304;2023-04-25T09:24:38;98615.19;;;14.57;30.12
74913;BME280;63878;55.624;37.304;2023-04-25T09:34:42;98614.69;;;15.16;28.88
74913;BME280;63878;55.624;37.304;2023-04-25T09:44:45;98612.25;;;14.13;31.32
74913;BME280;63878;55.624;37.304;2023-04-25T09:54:46;98596.53;;;14.73;30.67
74913;BME280;63878;55.624;37.304;2023-04-25T10:04:49;98584.13;;;17.53;28.03
74913;BME280;63878;55.624;37.304;2023-04-25T10:14:50;98578.25;;;15.01;28.34
74913;BME280;63878;55.624;37.304;2023-04-25T10:24:52;98558.09;;;16.48;29.11
74913;BME280;63878;55.624;37.304;2023-04-25T10:34:53;98556.88;;;16.87;28.99
74913;BME280;63878;55.624;37.304;2023-04-25T10:45:07;98546.84;;;16.67;26.76
74913;BME280;63878;55.624;37.304;2023-04-25T10:55:08;98535.38;;;15.57;26.63
74913;BME280;63878;55.624;37.304;2023-04-25T11:05:09;98546.38;;;16.28;31.04
74913;BME280;63878;55.624;37.304;2023-04-25T11:15:10;98473.47;;;17.49;31.40
74913;BME280;63878;55.624;37.304;2023-04-25T11:25:12;98507.50;;;15.67;26.48
74913;BME280;63878;55.624;37.304;2023-04-25T11:35:13;98493.78;;;15.26;27.31
74913;BME280;63878;55.624;37.304;2023-04-25T11:45:14;98481.47;;;16.14;26.82
74913;BME280;63878;55.624;37.304;2023-04-25T11:55:17;98470.94;;;16.63;26.76
74913;BME280;63878;55.624;37.304;2023-04-25T12:05:18;98459.69;;;16.46;26.39
74913;BME280;63878;55.624;37.304;2023-04-25T12:15:23;98447.06;;;15.98;26.20
74913;BME280;63878;55.624;37.304;2023-04-25T12:25:37;98432.31;;;16.74;26.98
74913;BME280;63878;55.624;37.304;2023-04-25T12:35:38;98412.63;;;18.60;29.39
74913;BME280;63878;55.624;37.304;2023-04-25T12:45:38;98398.59;;;16.66;25.22
74913;BME280;63878;55.624;37.304;2023-04-25T12:55:39;98385.81;;;17.87;28.33
74913;BME280;63878;55.624;37.304;2023-04-25T13:05:40;98363.13;;;16.38;28.90
74913;BME280;63878;55.624;37.304;2023-04-25T13:15:41;98361.38;;;15.22;27.66
74913;BME280;63878;55.624;37.304;2023-04-25T13:25:41;98351.50;;;15.01;28.37
74913;BME280;63878;55.624;37.304;2023-04-25T13:35:42;98342.19;;;15.41;27.42
74913;BME280;63878;55.624;37.304;2023-04-25T13:45:43;98333.00;;;15.58;26.65
74913;BME280;63878;55.624;37.304;2023-04-25T13:55:43;98323.66;;;15.62;27.21
74913;BME280;63878;55.624;37.304;2023-04-25T14:05:44;98297.75;;;16.35;29.80
74913;BME280;63878;55.624;37.304;2023-04-25T14:15:45;98294.00;;;14.85;30.14
74913;BME280;63878;55.624;37.304;2023-04-25T14:25:45;98290.16;;;14.58;30.68
74913;BME280;63878;55.624;37.304;2023-04-25T14:35:46;98278.00;;;14.64;30.53
74913;BME280;63878;55.624;37.304;2023-04-25T14:45:46;98252.06;;;14.95;30.94
74913;BME280;63878;55.624;37.304;2023-04-25T14:55:47;98233.94;;;16.27;28.67
74913;BME280;63878;55.624;37.304;2023-04-25T15:05:47;98203.94;;;15.62;28.54
74913;BME280;63878;55.624;37.304;2023-04-25T15:15:48;98197.38;;;15.44;28.89
74913;BME280;63878;55.624;37.304;2023-04-25T15:25:50;98172.91;;;15.48;28.38
74913;BME280;63878;55.624;37.304;2023-04-25T15:35:51;98166.59;;;14.77;28.53
74913;BME280;63878;55.624;37.304;2023-04-25T15:56:29;98140.06;;;14.47;30.41
74913;BME280;63878;55.624;37.304;2023-04-25T16:06:30;98138.22;;;14.48;28.64
74913;BME280;63878;55.624;37.304;2023-04-25T16:16:31;98118.53;;;13.68;30.28
74913;BME280;63878;55.624;37.304;2023-04-25T16:26:31;98113.31;;;13.75;30.98
74913;BME280;63878;55.624;37.304;2023-04-25T16:36:32;98120.94;;;13.93;30.80
74913;BME280;63878;55.624;37.304;2023-04-25T16:46:32;98118.09;;;13.94;30.48
74913;BME280;63878;55.624;37.304;2023-04-25T16:56:33;98095.84;;;14.40;29.48
74913;BME280;63878;55.624;37.304;2023-04-25T17:06:33;98097.88;;;14.23;29.07
74913;BME280;63878;55.624;37.304;2023-04-25T17:16:35;98096.50;;;14.27;29.36
74913;BME280;63878;55.624;37.304;2023-04-25T17:26:37;98098.59;;;14.17;28.84
74913;BME280;63878;55.624;37.304;2023-04-25T17:36:38;98088.44;;;14.20;29.93
74913;BME280;63878;55.624;37.304;2023-04-25T17:46:38;98105.03;;;13.55;36.88
74913;BME280;63878;55.624;37.304;2023-04-25T17:56:39;98115.44;;;13.19;39.67
74913;BME280;63878;55.624;37.304;2023-04-25T18:06:40;98116.63;;;12.93;41.53
74913;BME280;63878;55.624;37.304;2023-04-25T18:16:44;98111.91;;;12.41;43.85
74913;BME280;63878;55.624;37.304;2023-04-25T18:26:46;98105.59;;;12.42;44.13
74913;BME280;63878;55.624;37.304;2023-04-25T18:36:47;98091.03;;;12.47;43.57
74913;BME280;63878;55.624;37.304;2023-04-25T18:46:48;98105.91;;;12.08;45.58
74913;BME280;63878;55.624;37.304;2023-04-25T18:56:48;98073.94;;;12.18;45.56
74913;BME280;63878;55.624;37.304;2023-04-25T19:06:49;98080.88;;;12.27;46.72
74913;BME280;63878;55.624;37.304;2023-04-25T19:16:49;98067.06;;;13.17;43.03
74913;BME280;63878;55.624;37.304;2023-04-25T19:26:50;98055.47;;;13.56;44.17
74913;BME280;63878;55.624;37.304;2023-04-25T19:36:50;98055.44;;;13.03;46.53
74913;BME280;63878;55.624;37.304;2023-04-25T19:46:51;98035.44;;;12.47;47.32
74913;BME280;63878;55.624;37.304;2023-04-25T19:56:52;98033.56;;;11.85;49.63
74913;BME280;63878;55.624;37.304;2023-04-25T20:06:52;98000.06;;;11.69;50.84
74913;BME280;63878;55.624;37.304;2023-04-25T20:16:52;98002.72;;;11.61;52.07
74913;BME280;63878;55.624;37.304;2023-04-25T20:26:53;97978.75;;;11.62;53.09
74913;BME280;63878;55.624;37.304;2023-04-25T20:36:54;97964.41;;;11.73;52.36
74913;BME280;63878;55.624;37.304;2023-04-25T20:46:54;97959.56;;;11.77;51.73
74913;BME280;63878;55.624;37.304;2023-04-25T20:56:55;97940.94;;;11.70;53.30
74913;BME280;63878;55.624;37.304;2023-04-25T21:06:55;97920.59;;;11.79;52.88
74913;BME280;63878;55.624;37.304;2023-04-25T21:16:56;97904.22;;;11.75;52.25
74913;BME280;63878;55.624;37.304;2023-04-25T21:26:57;97887.75;;;11.57;51.52
74913;BME280;63878;55.624;37.304;2023-04-25T21:36:58;97873.59;;;11.50;51.53
74913;BME280;63878;55.624;37.304;2023-04-25T21:46:59;97866.47;;;11.50;51.25
74913;BME280;63878;55.624;37.304;2023-04-25T21:56:59;97848.25;;;11.32;51.60
74913;BME280;63878;55.624;37.304;2023-04-25T22:07:00;97841.69;;;10.73;52.70
74913;BME280;63878;55.624;37.304;2023-04-25T22:17:00;97835.22;;;10.51;53.30
74913;BME280;63878;55.624;37.304;2023-04-25T22:27:01;97821.06;;;10.68;51.93
74913;BME280;63878;55.624;37.304;2023-04-25T22:37:01;97819.22;;;10.77;51.84
74913;BME280;63878;55.624;37.304;2023-04-25T22:47:02;97801.22;;;10.80;50.92
74913;BME280;63878;55.624;37.304;2023-04-25T22:57:05;97789.38;;;10.68;52.52
74913;BME280;63878;55.624;37.304;2023-04-25T23:07:06;97784.09;;;10.60;53.01
74913;BME280;63878;55.624;37.304;2023-04-25T23:17:07;97772.94;;;10.42;54.23
74913;BME280;63878;55.624;37.304;2023-04-25T23:27:07;97769.03;;;10.13;55.86
74913;BME280;63878;55.624;37.304;2023-04-25T23:37:08;97756.81;;;9.63;58.96
74913;BME280;63878;55.624;37.304;2023-04-25T23:47:09;97749.91;;;9.46;59.84
74913;BME280;63878;55.624;37.304;2023-04-25T23:57:09;97737.63;;;9.21;61.76
